createdAt,value
2022-08-19T00:02:05.810Z,25.48
2022-08-19T00:08:09.318Z,25.54
2022-08-19T00:14:14.376Z,25.37
2022-08-19T00:20:23.431Z,25.50
2022-08-19T00:26:27.638Z,25.55
2022-08-19T00:32:31.411Z,25.43
2022-08-19T00:38:43.952Z,-145.26
2022-08-19T00:44:47.580Z,-145.26
2022-08-19T00:50:52.492Z,-145.26
2022-08-19T00:56:57.437Z,-145.26
2022-08-19T01:03:01.134Z,-145.26
2022-08-19T01:09:05.378Z,-145.26
2022-08-19T01:15:14.238Z,-145.26
2022-08-19T01:21:24.897Z,-145.26
2022-08-19T01:27:43.156Z,25.43
2022-08-19T01:33:48.113Z,25.32
2022-08-19T01:39:51.790Z,25.37
2022-08-19T01:45:56.783Z,25.36
2022-08-19T01:52:02.616Z,25.39
2022-08-19T01:58:07.967Z,25.38
2022-08-19T02:04:12.881Z,25.38
2022-08-19T02:10:19.804Z,25.40
2022-08-19T02:16:24.333Z,25.48
2022-08-19T02:22:29.391Z,25.48
2022-08-19T02:28:33.434Z,25.45
2022-08-19T02:34:37.045Z,25.47
2022-08-19T02:40:41.970Z,25.51
2022-08-19T02:46:47.089Z,25.46
2022-08-19T02:52:50.632Z,25.46
2022-08-19T02:58:56.171Z,25.50
2022-08-19T03:04:59.740Z,25.50
2022-08-19T03:11:03.299Z,25.54
2022-08-19T03:17:09.024Z,25.62
2022-08-19T03:23:13.633Z,25.69
2022-08-19T03:29:30.463Z,26.16
2022-08-19T03:35:37.711Z,25.71
2022-08-19T03:41:44.927Z,25.71
2022-08-19T03:47:49.511Z,-145.26
2022-08-19T03:53:55.367Z,-145.26
2022-08-19T04:00:13.015Z,-145.26
2022-08-19T04:06:19.560Z,-145.26
2022-08-19T04:12:24.499Z,-145.26
2022-08-19T04:18:33.601Z,-145.26
2022-08-19T04:24:40.070Z,-145.26
2022-08-19T04:30:48.508Z,-145.26
2022-08-19T04:36:53.421Z,-145.26
2022-08-19T04:42:57.466Z,-145.26
2022-08-19T04:49:10.389Z,-145.26
2022-08-19T04:55:17.710Z,-145.26
2022-08-19T05:01:24.184Z,25.75
2022-08-19T05:07:29.304Z,25.73
2022-08-19T05:13:32.819Z,25.64
2022-08-19T05:19:56.002Z,25.65
2022-08-19T05:26:00.981Z,25.67
2022-08-19T05:32:06.557Z,25.71
2022-08-19T05:38:11.950Z,25.74
2022-08-19T05:44:17.984Z,25.70
2022-08-19T05:50:21.806Z,25.75
2022-08-19T05:56:25.387Z,25.73
2022-08-19T06:02:32.546Z,25.79
2022-08-19T06:08:37.285Z,25.83
2022-08-19T06:14:41.774Z,25.89
2022-08-19T06:20:56.187Z,25.92
2022-08-19T06:27:01.591Z,25.98
2022-08-19T06:33:05.452Z,26.00
2022-08-19T06:39:12.701Z,26.04
2022-08-19T06:45:16.528Z,26.10
2022-08-19T06:51:20.653Z,26.13
2022-08-19T06:57:27.342Z,26.18
2022-08-19T07:03:33.482Z,26.23
2022-08-19T07:09:43.194Z,26.27
2022-08-19T07:15:48.759Z,26.30
2022-08-19T07:21:53.796Z,26.32
2022-08-19T07:27:58.229Z,26.33
2022-08-19T07:34:08.720Z,26.37
2022-08-19T07:40:13.872Z,26.40
2022-08-19T07:46:18.113Z,26.42
2022-08-19T07:52:23.330Z,26.46
2022-08-19T07:58:27.036Z,26.47
2022-08-19T08:04:48.297Z,26.49
2022-08-19T08:10:54.611Z,26.50
2022-08-19T08:17:00.388Z,26.54
2022-08-19T08:23:22.047Z,26.58
2022-08-19T08:29:27.345Z,26.60
2022-08-19T08:35:39.831Z,26.64
2022-08-19T08:41:50.409Z,26.64
2022-08-19T08:48:00.005Z,26.64
2022-08-19T08:54:09.881Z,26.68
2022-08-19T09:00:21.987Z,26.69
2022-08-19T09:06:35.373Z,26.72
2022-08-19T09:12:47.265Z,26.73
2022-08-19T09:18:54.624Z,26.74
2022-08-19T09:24:59.583Z,26.72
2022-08-19T09:31:03.141Z,26.72
2022-08-19T09:37:07.429Z,26.71
2022-08-19T09:43:13.521Z,26.68
2022-08-19T09:49:18.381Z,26.66
2022-08-19T09:55:22.330Z,26.67
2022-08-19T10:01:32.714Z,26.54
2022-08-19T10:07:36.750Z,26.58
2022-08-19T10:13:40.342Z,26.56
2022-08-19T10:19:53.424Z,26.60
2022-08-19T10:26:02.682Z,26.61
2022-08-19T10:32:09.993Z,26.63
2022-08-19T10:38:15.033Z,26.65
2022-08-19T10:44:19.181Z,26.59
2022-08-19T10:50:40.533Z,26.51
2022-08-19T10:56:56.493Z,26.44
2022-08-19T11:03:01.193Z,26.49
2022-08-19T11:09:05.738Z,26.49
2022-08-19T11:15:12.362Z,26.53
2022-08-19T11:21:20.020Z,26.43
2022-08-19T11:27:24.281Z,26.42
2022-08-19T11:33:29.312Z,26.40
2022-08-19T11:39:34.087Z,26.26
2022-08-19T11:45:38.140Z,25.96
2022-08-19T11:51:45.180Z,26.17
2022-08-19T11:57:48.748Z,26.23
2022-08-19T12:03:54.875Z,26.41
2022-08-19T12:09:59.849Z,26.50
2022-08-19T12:16:10.660Z,26.58
2022-08-19T12:22:14.197Z,26.55
2022-08-19T12:28:19.950Z,26.49
2022-08-19T12:34:23.499Z,26.74
2022-08-19T12:40:27.610Z,26.93
2022-08-19T12:46:32.551Z,27.05
2022-08-19T12:52:38.905Z,27.13
2022-08-19T12:58:48.897Z,27.25
2022-08-19T13:04:56.039Z,27.40
2022-08-19T13:11:08.593Z,27.44
2022-08-19T13:17:15.274Z,27.57
2022-08-19T13:23:20.213Z,27.64
2022-08-19T13:29:41.262Z,27.64
2022-08-19T13:35:52.879Z,28.32
2022-08-19T13:41:59.333Z,27.36
2022-08-19T13:48:07.772Z,27.27
2022-08-19T13:54:13.263Z,27.28
2022-08-19T14:00:20.738Z,27.33
2022-08-19T14:06:24.467Z,27.27
2022-08-19T14:12:28.762Z,27.29
2022-08-19T14:18:33.993Z,27.35
2022-08-19T14:24:39.899Z,27.25
2022-08-19T14:30:45.549Z,27.28
2022-08-19T14:36:50.582Z,27.19
2022-08-19T14:42:56.784Z,27.19
2022-08-19T14:49:01.445Z,27.14
2022-08-19T14:55:14.354Z,27.13
2022-08-19T15:01:21.876Z,27.07
2022-08-19T15:07:28.854Z,26.90
2022-08-19T15:13:34.524Z,26.91
2022-08-19T15:19:38.367Z,26.93
2022-08-19T15:25:42.548Z,26.94
2022-08-19T15:31:47.524Z,26.76
2022-08-19T15:37:53.603Z,26.51
2022-08-19T15:44:00.065Z,26.54
2022-08-19T15:50:10.813Z,26.72
2022-08-19T15:56:14.607Z,26.75
2022-08-19T16:02:37.139Z,26.63
2022-08-19T16:08:48.819Z,26.43
2022-08-19T16:14:53.545Z,26.12
2022-08-19T16:20:57.120Z,26.07
2022-08-19T16:27:02.077Z,26.24
2022-08-19T16:33:05.769Z,25.99
2022-08-19T16:39:10.232Z,26.05
2022-08-19T16:45:15.129Z,26.08
2022-08-19T16:51:18.777Z,26.03
2022-08-19T16:57:23.959Z,26.03
2022-08-19T17:03:35.987Z,-145.26
2022-08-19T17:09:40.451Z,25.95
2022-08-19T17:15:44.912Z,26.03
2022-08-19T17:21:49.853Z,25.87
2022-08-19T17:27:53.923Z,25.77
2022-08-19T17:33:58.943Z,25.74
2022-08-19T17:40:05.345Z,25.72
2022-08-19T17:46:11.151Z,-145.26
2022-08-19T17:52:14.814Z,-145.26
2022-08-19T17:58:20.577Z,-145.26
2022-08-19T18:04:27.122Z,-145.26
2022-08-19T18:10:35.249Z,-145.26
2022-08-19T18:16:40.390Z,-145.26
2022-08-19T18:22:45.961Z,-145.26
2022-08-19T18:28:51.765Z,-145.26
2022-08-19T18:34:56.719Z,-145.26
2022-08-19T18:41:19.332Z,-145.26
2022-08-19T18:47:41.680Z,-145.26
2022-08-19T18:53:48.624Z,-145.26
2022-08-19T18:59:52.613Z,-145.26
2022-08-19T19:05:57.452Z,-145.26
2022-08-19T19:12:04.787Z,-145.26
2022-08-19T19:18:09.368Z,-145.26
2022-08-19T19:24:14.067Z,-145.26
2022-08-19T19:30:19.696Z,-145.26
2022-08-19T19:36:24.558Z,-145.26
2022-08-19T19:42:28.268Z,-145.26
2022-08-19T19:48:33.257Z,-145.26
2022-08-19T19:54:37.836Z,-145.26
2022-08-19T20:00:41.921Z,-145.26
2022-08-19T20:06:48.466Z,-145.26
2022-08-19T20:12:54.871Z,-145.26
2022-08-19T20:18:59.854Z,-145.26
2022-08-19T20:25:06.402Z,-145.26
2022-08-19T20:31:11.512Z,-145.26
2022-08-19T20:37:15.184Z,-145.26
2022-08-19T20:43:21.189Z,-145.26
2022-08-19T20:49:27.001Z,-145.26
2022-08-19T20:55:31.251Z,-145.26
2022-08-19T21:01:36.191Z,-145.26
2022-08-19T21:07:39.850Z,-145.26
2022-08-19T21:13:43.433Z,-145.26
2022-08-19T21:19:48.357Z,-145.26
2022-08-19T21:25:54.656Z,-145.26
2022-08-19T21:31:58.401Z,-145.26
2022-08-19T21:38:03.329Z,-145.26
2022-08-19T21:44:06.877Z,-145.26
2022-08-19T21:50:12.441Z,-145.26
2022-08-19T21:56:17.377Z,-145.26
2022-08-19T22:02:22.041Z,-145.26
2022-08-19T22:08:27.325Z,-145.26
2022-08-19T22:14:33.730Z,-145.26
2022-08-19T22:20:37.649Z,-145.26
2022-08-19T22:26:41.316Z,-145.26
2022-08-19T22:32:48.236Z,-145.26
2022-08-19T22:38:59.825Z,-145.26
2022-08-19T22:45:03.409Z,-145.26
2022-08-19T22:51:25.846Z,-145.26
2022-08-19T22:57:31.933Z,-145.26
2022-08-19T23:03:35.542Z,-145.26
2022-08-19T23:09:40.792Z,-145.26
2022-08-19T23:15:47.651Z,-145.26
2022-08-19T23:21:52.705Z,-145.26
2022-08-19T23:28:15.228Z,-145.26
2022-08-19T23:34:18.818Z,-145.26
2022-08-19T23:40:22.767Z,-145.26
2022-08-19T23:46:28.274Z,-145.26
2022-08-19T23:52:33.755Z,-145.26
2022-08-19T23:58:38.476Z,-145.26
